Time;durP1;ratioP1;P1;durP2;ratioP2;P2;SDS_P1;SDS_P2;PMS_P1;PMS_P2;Temp;Humidity;BMP_temperature;BMP_pressure;BME280_temperature;BME280_humidity;BME280_pressure;Samples;Min_cycle;Max_cycle;Signal;HPM_P1;HPM_P2
2023/01/23 00:02:48;;;;;;;40.93;11.03;;;;;;;0.65;100.00;102860.69;5982737;29;20062;-70
2023/01/23 00:05:43;;;;;;;32.10;11.00;;;;;;;0.62;100.00;102858.16;5983223;29;20034;-71
2023/01/23 00:08:39;;;;;;;29.77;11.40;;;;;;;0.66;100.00;102871.97;5983425;29;20035;-71
2023/01/23 00:11:35;;;;;;;34.67;11.00;;;;;;;0.74;100.00;102878.78;5983467;29;20076;-71
2023/01/23 00:14:30;;;;;;;35.87;10.50;;;;;;;0.53;100.00;102843.53;5982608;29;20109;-69
2023/01/23 00:17:28;;;;;;;29.33;10.17;;;;;;;0.63;100.00;102852.00;5983091;29;20035;-69
2023/01/23 00:20:24;;;;;;;34.40;11.52;;;;;;;0.67;100.00;102882.41;5982837;29;20051;-68
2023/01/23 00:23:19;;;;;;;34.20;11.52;;;;;;;0.67;100.00;102877.19;5982367;29;20110;-68
2023/01/23 00:26:17;;;;;;;31.43;10.50;;;;;;;0.75;100.00;102882.25;5983067;28;20035;-68
2023/01/23 00:29:14;;;;;;;33.50;9.27;;;;;;;0.76;100.00;102873.53;5982994;29;20105;-69
2023/01/23 00:32:09;;;;;;;34.78;9.55;;;;;;;0.64;100.00;102869.41;5981850;29;20686;-68
2023/01/23 00:35:05;;;;;;;31.27;10.57;;;;;;;0.78;100.00;102883.06;5981262;29;20071;-68
2023/01/23 00:38:00;;;;;;;34.80;9.73;;;;;;;0.68;100.00;102878.88;5982207;29;20436;-71
2023/01/23 00:40:56;;;;;;;31.67;9.57;;;;;;;0.72;100.00;102869.25;5982874;29;20081;-71
2023/01/23 00:43:51;;;;;;;35.53;9.90;;;;;;;0.77;100.00;102881.31;5981644;29;20043;-71
2023/01/23 00:46:47;;;;;;;33.78;10.52;;;;;;;0.71;100.00;102860.56;5982727;28;20039;-69
2023/01/23 00:49:42;;;;;;;34.45;9.68;;;;;;;0.70;100.00;102861.47;5982405;29;20047;-70
2023/01/23 00:52:37;;;;;;;31.10;9.70;;;;;;;0.77;100.00;102880.44;5981649;29;20047;-71
2023/01/23 00:55:33;;;;;;;40.50;13.37;;;;;;;0.69;100.00;102867.56;5981868;29;20097;-70
2023/01/23 00:58:28;;;;;;;33.87;10.30;;;;;;;0.74;100.00;102883.13;5982191;29;20039;-71
2023/01/23 01:01:24;;;;;;;28.67;9.50;;;;;;;0.77;100.00;102881.31;5982180;28;20031;-70
2023/01/23 01:04:20;;;;;;;35.30;10.63;;;;;;;0.69;100.00;102878.00;5980994;29;20035;-70
2023/01/23 01:07:15;;;;;;;35.97;9.73;;;;;;;0.84;100.00;102901.22;5982099;29;20391;-71
2023/01/23 01:10:11;;;;;;;30.53;9.50;;;;;;;0.84;100.00;102898.59;5981951;29;20039;-71
2023/01/23 01:13:07;;;;;;;33.85;10.00;;;;;;;0.74;100.00;102885.72;5981279;29;20035;-70
2023/01/23 01:16:03;;;;;;;35.97;10.60;;;;;;;0.66;100.00;102891.09;5982080;29;20419;-71
2023/01/23 01:18:58;;;;;;;37.55;11.50;;;;;;;0.77;100.00;102891.75;5981484;29;20117;-71
2023/01/23 01:21:53;;;;;;;31.97;11.13;;;;;;;0.74;100.00;102907.47;5981385;29;20090;-71
2023/01/23 01:24:49;;;;;;;36.87;11.97;;;;;;;0.69;100.00;102896.28;5981300;29;20027;-70
2023/01/23 01:27:44;;;;;;;29.40;9.53;;;;;;;0.78;100.00;102903.94;5981252;29;20479;-70
2023/01/23 01:30:40;;;;;;;30.52;10.57;;;;;;;0.76;100.00;102910.91;5981815;29;20031;-70
2023/01/23 01:33:36;;;;;;;27.88;9.13;;;;;;;0.72;100.00;102917.09;5980840;29;20038;-70
2023/01/23 01:36:32;;;;;;;32.45;10.75;;;;;;;0.76;100.00;102921.38;5981588;29;20474;-70
2023/01/23 01:39:27;;;;;;;27.60;9.63;;;;;;;0.71;100.00;102912.75;5981380;28;20031;-70
2023/01/23 01:42:22;;;;;;;24.77;8.67;;;;;;;0.69;100.00;102914.56;5980949;29;20035;-69
2023/01/23 01:45:55;;;;;;;32.10;10.37;;;;;;;0.87;100.00;102937.69;5981430;28;20114;-70
2023/01/23 01:49:10;;;;;;;31.13;9.50;;;;;;;0.83;100.00;102933.44;5981323;29;20110;-71
2023/01/23 01:52:09;;;;;;;31.38;8.70;;;;;;;0.81;100.00;102930.00;5980457;29;20040;-70
2023/01/23 01:55:06;;;;;;;30.73;9.43;;;;;;;0.78;100.00;102930.06;5963265;29;20118;-70
2023/01/23 01:58:01;;;;;;;28.25;10.50;;;;;;;0.75;100.00;102929.25;5981140;29;20090;-70
2023/01/23 02:00:56;;;;;;;29.93;10.70;;;;;;;0.67;100.00;102932.00;5980625;29;20031;-70
2023/01/23 02:03:53;;;;;;;29.40;9.70;;;;;;;0.73;100.00;102931.88;5980456;29;20181;-70
2023/01/23 02:06:50;;;;;;;28.02;10.10;;;;;;;0.81;100.00;102945.66;5980617;29;20307;-70
2023/01/23 02:09:46;;;;;;;28.95;10.20;;;;;;;0.81;100.00;102945.66;5963945;29;20475;-70
2023/01/23 02:12:47;;;;;;;32.60;9.90;;;;;;;0.83;100.00;102943.88;5978950;28;20045;-71
2023/01/23 02:15:43;;;;;;;35.70;10.90;;;;;;;0.82;100.00;102944.75;5980848;29;20031;-70
2023/01/23 02:18:43;;;;;;;36.25;11.10;;;;;;;0.74;100.00;102928.38;5957963;29;20070;-69
2023/01/23 02:21:39;;;;;;;31.35;9.68;;;;;;;0.84;100.00;102945.59;5980383;29;20134;-69
2023/01/23 02:24:39;;;;;;;33.78;11.55;;;;;;;0.82;100.00;102943.88;5962738;29;20035;-69
2023/01/23 02:27:35;;;;;;;26.52;9.60;;;;;;;0.85;100.00;102951.66;5979789;29;20121;-70
2023/01/23 02:30:30;;;;;;;27.67;8.20;;;;;;;0.82;100.00;102960.41;5980539;29;20344;-69
2023/01/23 02:33:25;;;;;;;46.73;11.23;;;;;;;0.81;100.00;102966.56;5979181;29;20035;-70
2023/01/23 02:36:26;;;;;;;44.43;12.07;;;;;;;0.75;100.00;102944.91;5980042;29;20742;-69
2023/01/23 02:39:21;;;;;;;48.85;12.35;;;;;;;0.80;100.00;102971.78;5979984;29;20360;-69
2023/01/23 02:42:16;;;;;;;38.30;11.73;;;;;;;0.88;100.00;102962.06;5979347;29;20043;-69
2023/01/23 02:45:12;;;;;;;34.53;11.47;;;;;;;0.77;100.00;102962.25;5962817;28;20027;-70
2023/01/23 02:48:07;;;;;;;31.07;11.53;;;;;;;0.76;100.00;102957.91;5979980;29;20291;-69
2023/01/23 02:51:03;;;;;;;38.42;11.15;;;;;;;0.84;100.00;102970.84;5980046;29;20030;-69
2023/01/23 02:53:58;;;;;;;37.10;10.77;;;;;;;0.86;100.00;102972.53;5978813;29;20042;-69
2023/01/23 02:56:53;;;;;;;41.77;10.83;;;;;;;0.78;100.00;102960.50;5979102;29;20130;-69
2023/01/23 03:03:04;;;;;;;32.90;9.85;;;;;;;0.82;100.00;102970.88;5978660;29;20031;-69
2023/01/23 03:06:02;;;;;;;32.25;9.88;;;;;;;0.77;100.00;102961.41;5979790;29;20049;-70
2023/01/23 03:08:59;;;;;;;29.17;9.52;;;;;;;0.82;100.00;102970.00;5979254;29;20470;-69
2023/01/23 03:11:54;;;;;;;31.27;10.38;;;;;;;0.80;100.00;102964.81;5979048;29;20455;-69
2023/01/23 03:14:53;;;;;;;39.27;10.67;;;;;;;0.82;100.00;102968.25;5979576;29;20039;-69
2023/01/23 03:17:48;;;;;;;34.83;9.65;;;;;;;0.79;100.00;102965.69;5979310;29;20271;-70
2023/01/23 03:20:44;;;;;;;42.23;11.57;;;;;;;0.80;100.00;102972.66;5978990;29;20031;-70
2023/01/23 03:23:40;;;;;;;34.63;10.43;;;;;;;0.75;100.00;102971.00;5978519;29;20546;-69
2023/01/23 03:26:44;;;;;;;35.05;9.82;;;;;;;0.76;100.00;102970.97;5978715;29;20035;-69
2023/01/23 03:32:53;;;;;;;39.92;13.07;;;;;;;0.73;100.00;102984.09;5978880;29;20032;-69
2023/01/23 03:35:49;;;;;;;42.37;11.13;;;;;;;0.81;100.00;102987.44;5978988;29;20035;-69
2023/01/23 03:41:23;;;;;;;26.63;9.30;;;;;;;0.71;100.00;102970.19;5978498;29;20270;-69
2023/01/23 03:41:59;;;;;;;34.10;11.25;;;;;;;0.59;100.00;102949.56;5978324;29;20278;-70
2023/01/23 03:44:54;;;;;;;36.37;10.57;;;;;;;0.74;100.00;102975.38;5978994;28;20046;-69
2023/01/23 03:47:50;;;;;;;32.23;10.10;;;;;;;0.82;100.00;102985.66;5979329;29;20035;-69
2023/01/23 03:50:45;;;;;;;26.90;10.17;;;;;;;0.78;100.00;102987.50;5978892;29;20039;-70
2023/01/23 03:53:40;;;;;;;25.43;8.90;;;;;;;0.83;100.00;102990.00;5978282;29;20031;-71
2023/01/23 03:56:36;;;;;;;33.97;10.70;;;;;;;0.74;100.00;102975.38;5978461;29;20050;-70
2023/01/23 03:59:31;;;;;;;30.60;10.13;;;;;;;0.84;100.00;102991.75;5978595;29;20378;-69
2023/01/23 04:02:28;;;;;;;29.27;10.07;;;;;;;0.79;100.00;102985.75;5978409;29;20118;-70
2023/01/23 04:05:23;;;;;;;29.50;9.18;;;;;;;0.78;100.00;102982.28;5978984;29;20263;-70
2023/01/23 04:08:18;;;;;;;23.87;9.87;;;;;;;0.80;100.00;102993.53;5978636;29;20039;-70
2023/01/23 04:11:13;;;;;;;25.07;8.80;;;;;;;0.88;100.00;102996.88;5978956;29;20438;-70
2023/01/23 04:14:09;;;;;;;30.90;10.47;;;;;;;0.82;100.00;102978.69;5978118;29;20043;-70
2023/01/23 04:17:05;;;;;;;31.57;9.83;;;;;;;0.80;100.00;103003.97;5979001;29;20031;-70
2023/01/23 04:20:01;;;;;;;29.75;9.13;;;;;;;0.84;100.00;103010.88;5978695;29;20035;-70
2023/01/23 04:22:56;;;;;;;22.23;8.27;;;;;;;0.75;100.00;102991.91;5978274;29;20106;-70
2023/01/23 04:25:52;;;;;;;31.77;9.90;;;;;;;0.54;100.00;102967.03;5978289;29;20051;-70
2023/01/23 04:28:47;;;;;;;33.58;10.00;;;;;;;0.72;100.00;102992.81;5978387;29;20105;-70
2023/01/23 04:31:42;;;;;;;32.20;10.23;;;;;;;0.70;100.00;102999.81;5978693;29;20550;-71
2023/01/23 04:34:37;;;;;;;31.03;8.60;;;;;;;0.79;100.00;103009.25;5977867;28;20035;-71
2023/01/23 04:37:33;;;;;;;28.23;9.57;;;;;;;0.68;100.00;103004.19;5983043;29;20051;-70
2023/01/23 04:40:28;;;;;;;25.77;9.17;;;;;;;0.69;100.00;103002.44;5982587;29;20031;-70
2023/01/23 04:43:24;;;;;;;36.37;11.87;;;;;;;0.61;100.00;102997.38;5981875;29;20059;-70
2023/01/23 04:46:19;;;;;;;27.42;9.80;;;;;;;0.61;100.00;102994.75;5982161;28;20027;-70
2023/01/23 04:49:15;;;;;;;26.07;8.77;;;;;;;0.69;100.00;103002.44;5982265;29;20046;-70
2023/01/23 04:52:10;;;;;;;29.13;10.38;;;;;;;0.74;100.00;103011.91;5974109;29;20035;-70
2023/01/23 04:55:06;;;;;;;27.57;10.17;;;;;;;0.75;100.00;103003.22;5979910;29;20034;-70
2023/01/23 04:58:02;;;;;;;33.50;10.00;;;;;;;0.76;100.00;103006.69;5981794;29;20027;-70
2023/01/23 05:01:04;;;;;;;29.95;9.50;;;;;;;0.69;100.00;102992.88;5982435;29;20035;-70
2023/01/23 05:04:00;;;;;;;29.02;9.75;;;;;;;0.73;100.00;103005.00;5981493;29;20031;-70
2023/01/23 05:06:55;;;;;;;31.93;10.17;;;;;;;0.74;100.00;103014.53;5982175;29;20042;-70
2023/01/23 05:09:50;;;;;;;31.67;9.07;;;;;;;0.69;100.00;103018.97;5981949;29;20042;-70
2023/01/23 05:12:45;;;;;;;30.23;10.17;;;;;;;0.58;100.00;103008.72;5981098;29;20027;-70
2023/01/23 05:15:41;;;;;;;39.07;10.43;;;;;;;0.62;100.00;103022.59;5982123;29;20066;-70
2023/01/23 05:18:36;;;;;;;34.57;9.30;;;;;;;0.53;100.00;103007.94;5980957;29;20609;-70
2023/01/23 05:21:31;;;;;;;26.23;9.30;;;;;;;0.53;100.00;103012.28;5981723;29;20070;-70
2023/01/23 05:24:27;;;;;;;33.40;10.33;;;;;;;0.58;100.00;103016.56;5980838;29;20034;-70
2023/01/23 05:27:22;;;;;;;35.43;10.87;;;;;;;0.67;100.00;103025.97;5982390;29;20032;-70
2023/01/23 05:30:20;;;;;;;29.27;10.10;;;;;;;0.71;100.00;103032.84;5981416;29;20565;-70
2023/01/23 05:33:15;;;;;;;32.25;10.50;;;;;;;0.62;100.00;103017.38;5980346;29;20094;-69
2023/01/23 05:36:10;;;;;;;35.17;10.63;;;;;;;0.63;100.00;103023.41;5981460;29;20039;-70
2023/01/23 05:39:06;;;;;;;39.73;10.93;;;;;;;0.41;100.00;102996.81;5981306;29;20271;-70
2023/01/23 05:42:01;;;;;;;32.90;9.47;;;;;;;0.52;100.00;103018.38;5981085;29;20402;-70
2023/01/23 05:44:56;;;;;;;38.83;10.85;;;;;;;0.58;100.00;103020.91;5980872;28;20278;-70
2023/01/23 05:47:54;;;;;;;34.40;10.40;;;;;;;0.58;100.00;103026.13;5979755;28;20050;-70
2023/01/23 05:50:49;;;;;;;37.05;11.93;;;;;;;0.59;100.00;103027.84;5981419;29;20031;-70
2023/01/23 05:53:45;;;;;;;33.00;10.67;;;;;;;0.60;100.00;103040.00;5970323;29;20364;-71
2023/01/23 05:56:40;;;;;;;33.85;11.40;;;;;;;0.62;100.00;103043.47;5981200;29;20279;-70
2023/01/23 05:59:35;;;;;;;40.20;13.67;;;;;;;0.53;100.00;103038.38;5981242;29;20038;-70
2023/01/23 06:02:32;;;;;;;29.93;10.73;;;;;;;0.54;100.00;103050.56;5979788;29;20314;-71
2023/01/23 06:05:28;;;;;;;32.58;10.88;;;;;;;0.50;100.00;103044.53;5981250;29;20115;-71
2023/01/23 06:08:23;;;;;;;39.53;12.15;;;;;;;0.50;100.00;103060.19;5980827;29;20038;-69
2023/01/23 06:11:19;;;;;;;36.07;9.67;;;;;;;0.53;100.00;103064.50;5981003;29;20063;-70
2023/01/23 06:14:14;;;;;;;36.87;9.70;;;;;;;0.47;100.00;103061.97;5980245;29;20094;-70
2023/01/23 06:17:11;;;;;;;33.30;10.97;;;;;;;0.41;100.00;103054.22;5980200;29;20039;-70
2023/01/23 06:20:07;;;;;;;39.33;10.60;;;;;;;0.37;100.00;103060.41;5963788;29;20379;-69
2023/01/23 06:23:02;;;;;;;38.95;12.27;;;;;;;0.46;100.00;103083.75;5979105;29;20035;-70
2023/01/23 06:25:59;;;;;;;35.42;12.75;;;;;;;0.44;100.00;103075.06;5980584;29;20038;-70
2023/01/23 06:28:55;;;;;;;31.05;10.95;;;;;;;0.33;100.00;103066.53;5980590;29;20391;-71
2023/01/23 06:31:50;;;;;;;31.17;9.73;;;;;;;0.38;100.00;103070.78;5979499;29;20067;-71
2023/01/23 06:34:45;;;;;;;45.27;13.90;;;;;;;0.39;100.00;103082.09;5980130;29;20490;-70
2023/01/23 06:37:41;;;;;;;38.63;13.53;;;;;;;0.44;100.00;103086.38;5979637;29;20035;-71
2023/01/23 06:40:36;;;;;;;39.73;12.60;;;;;;;0.41;100.00;103085.53;5980181;29;20039;-71
2023/01/23 06:43:31;;;;;;;34.07;11.43;;;;;;;0.27;100.00;103071.88;5979384;29;20035;-71
2023/01/23 06:46:26;;;;;;;34.07;11.03;;;;;;;0.37;100.00;103103.00;5962247;29;20540;-69
2023/01/23 06:49:22;;;;;;;35.10;11.10;;;;;;;0.27;100.00;103083.13;5977315;28;20023;-69
2023/01/23 06:52:17;;;;;;;26.97;9.23;;;;;;;0.40;100.00;103104.72;5977084;28;20110;-68
2023/01/23 06:55:12;;;;;;;37.37;12.50;;;;;;;0.30;100.00;103103.97;5979929;29;20551;-69
2023/01/23 06:58:08;;;;;;;28.90;9.83;;;;;;;0.31;100.00;103105.69;5978912;28;20035;-69
2023/01/23 07:01:11;;;;;;;30.35;10.88;;;;;;;0.39;100.00;103116.03;5979114;29;20027;-70
2023/01/23 07:04:07;;;;;;;30.98;10.43;;;;;;;0.31;100.00;103116.13;5979148;29;20039;-69
2023/01/23 07:07:03;;;;;;;35.05;10.52;;;;;;;0.25;100.00;103117.97;5979310;29;20392;-69
2023/01/23 07:09:58;;;;;;;35.17;10.93;;;;;;;0.35;100.00;103132.63;5979441;29;20047;-68
2023/01/23 07:12:54;;;;;;;30.53;9.23;;;;;;;0.32;100.00;103138.75;5977785;29;20047;-69
2023/01/23 07:15:49;;;;;;;33.30;10.23;;;;;;;0.35;100.00;103138.72;5979340;29;20045;-69
2023/01/23 07:18:44;;;;;;;38.27;12.67;;;;;;;0.29;100.00;103153.56;5979610;29;20041;-68
2023/01/23 07:21:39;;;;;;;32.63;11.77;;;;;;;0.25;100.00;103151.88;5978674;29;20035;-69
2023/01/23 07:24:35;;;;;;;29.47;10.13;;;;;;;0.30;100.00;103157.91;5978700;29;20365;-69
2023/01/23 07:27:31;;;;;;;33.43;9.80;;;;;;;0.30;100.00;103157.91;5981090;28;20472;-68
2023/01/23 07:30:28;;;;;;;28.48;10.38;;;;;;;0.26;100.00;103164.03;5984076;28;20116;-68
2023/01/23 07:33:23;;;;;;;32.03;11.90;;;;;;;0.32;100.00;103158.75;5978487;29;20146;-69
2023/01/23 07:36:18;;;;;;;26.87;9.60;;;;;;;0.27;100.00;103163.19;5978674;28;20031;-68
2023/01/23 07:39:14;;;;;;;36.30;12.00;;;;;;;0.32;100.00;103169.19;5978843;29;20463;-69
2023/01/23 07:42:10;;;;;;;29.00;10.93;;;;;;;0.34;100.00;103183.06;5978421;29;20043;-68
2023/01/23 07:45:06;;;;;;;32.50;11.00;;;;;;;0.24;100.00;103164.06;5979094;28;20418;-69
2023/01/23 07:48:01;;;;;;;29.23;11.10;;;;;;;0.37;100.00;103183.91;5979135;29;20463;-69
2023/01/23 07:51:00;;;;;;;32.47;11.30;;;;;;;0.35;100.00;103174.38;5977922;28;20046;-69
2023/01/23 07:53:55;;;;;;;28.98;10.68;;;;;;;0.40;100.00;103177.78;5971387;29;20031;-69
2023/01/23 07:56:51;;;;;;;34.07;12.33;;;;;;;0.46;100.00;103190.75;5978688;29;20044;-69
2023/01/23 07:59:47;;;;;;;25.08;9.38;;;;;;;0.37;100.00;103183.91;5978818;29;20023;-69
2023/01/23 08:02:42;;;;;;;36.35;12.98;;;;;;;0.45;100.00;103191.63;5977322;28;20149;-69
2023/01/23 08:05:37;;;;;;;31.40;10.13;;;;;;;0.44;100.00;103190.75;5978548;29;20047;-69
2023/01/23 08:08:33;;;;;;;27.70;11.40;;;;;;;0.47;100.00;103184.63;5978321;28;20034;-69
2023/01/23 08:11:28;;;;;;;35.03;11.30;;;;;;;0.45;100.00;103189.00;5981650;28;20043;-70
2023/01/23 08:14:23;;;;;;;31.87;11.70;;;;;;;0.43;100.00;103177.75;5981950;29;20034;-70
2023/01/23 08:17:19;;;;;;;36.43;10.97;;;;;;;0.56;100.00;103189.72;5982827;29;20059;-68
2023/01/23 08:20:15;;;;;;;25.60;10.05;;;;;;;0.46;100.00;103175.09;5982704;29;20297;-69
2023/01/23 08:23:10;;;;;;;30.10;10.35;;;;;;;0.54;100.00;103191.50;5982129;28;20771;-70
2023/01/23 08:26:07;;;;;;;28.40;10.80;;;;;;;0.53;100.00;103187.16;5982423;29;20483;-68
2023/01/23 08:29:03;;;;;;;24.73;9.35;;;;;;;0.55;100.00;103182.78;5983094;29;20047;-69
2023/01/23 08:31:58;;;;;;;36.88;13.00;;;;;;;0.51;100.00;103173.28;5981723;29;20043;-68
2023/01/23 08:34:54;;;;;;;32.08;12.50;;;;;;;0.64;100.00;103174.81;5982526;29;20082;-68
2023/01/23 08:37:49;;;;;;;30.42;10.80;;;;;;;0.65;100.00;103187.00;5982717;29;20035;-68
2023/01/23 08:40:45;;;;;;;28.17;11.20;;;;;;;0.63;100.00;103180.91;5982523;29;20086;-69
2023/01/23 08:43:41;;;;;;;27.80;11.13;;;;;;;0.58;100.00;103188.81;5981892;29;20502;-70
2023/01/23 08:46:36;;;;;;;28.65;11.38;;;;;;;0.58;100.00;103172.28;5982580;28;20031;-68
2023/01/23 08:49:31;;;;;;;28.63;10.07;;;;;;;0.63;100.00;103180.91;5982475;29;20062;-68
2023/01/23 08:52:27;;;;;;;35.20;12.30;;;;;;;0.59;100.00;103200.13;5981013;28;20286;-69
2023/01/23 08:55:22;;;;;;;30.92;10.55;;;;;;;0.61;100.00;103185.31;5981839;28;20294;-70
2023/01/23 08:58:19;;;;;;;24.23;9.90;;;;;;;0.77;100.00;103201.59;5982212;28;20089;-70
2023/01/23 09:01:20;;;;;;;32.30;12.15;;;;;;;0.71;100.00;103205.16;5982207;28;20031;-69
2023/01/23 09:04:16;;;;;;;29.02;9.25;;;;;;;0.81;100.00;103205.91;5981601;29;20047;-68
2023/01/23 09:07:11;;;;;;;30.35;10.90;;;;;;;0.72;100.00;103191.22;5981986;29;20645;-69
2023/01/23 09:10:07;;;;;;;29.60;11.77;;;;;;;0.67;100.00;103207.84;5981774;29;20035;-69
2023/01/23 09:13:03;;;;;;;34.25;11.48;;;;;;;0.68;100.00;103210.44;5980816;29;20058;-70
2023/01/23 09:15:58;;;;;;;33.83;11.35;;;;;;;0.64;100.00;103213.97;5981464;29;20046;-69
2023/01/23 09:18:54;;;;;;;39.27;12.43;;;;;;;0.62;100.00;103210.53;5982142;29;20114;-68
2023/01/23 09:21:52;;;;;;;36.85;11.98;;;;;;;0.63;100.00;103207.03;5981029;28;20031;-70
2023/01/23 09:24:47;;;;;;;38.03;10.95;;;;;;;0.58;100.00;103214.06;5982178;29;20166;-70
2023/01/23 09:27:43;;;;;;;36.00;11.00;;;;;;;0.71;100.00;103215.59;5981722;29;20035;-69
2023/01/23 09:30:38;;;;;;;31.50;10.30;;;;;;;0.73;100.00;103233.88;5963809;29;20035;-70
2023/01/23 09:33:34;;;;;;;29.77;11.20;;;;;;;0.87;100.00;103240.63;5980107;28;20492;-70
2023/01/23 09:36:29;;;;;;;33.47;11.57;;;;;;;0.69;100.00;103225.22;5973493;29;20027;-69
2023/01/23 09:39:25;;;;;;;33.20;10.37;;;;;;;0.65;100.00;103236.59;5981535;29;20042;-69
2023/01/23 09:42:24;;;;;;;36.55;12.00;;;;;;;0.70;100.00;103245.22;5980807;29;20758;-68
2023/01/23 09:45:22;;;;;;;42.65;12.27;;;;;;;0.86;100.00;103251.97;5981257;28;20043;-69
2023/01/23 09:48:17;;;;;;;40.10;14.10;;;;;;;0.78;100.00;103253.81;5980107;29;20043;-69
2023/01/23 09:51:36;;;;;;;33.63;10.95;;;;;;;0.77;100.00;103264.28;5980868;28;20043;-68
2023/01/23 09:54:47;;;;;;;41.05;13.70;;;;;;;0.62;100.00;103254.91;5974522;28;20053;-68
2023/01/23 09:57:46;;;;;;;43.40;11.93;;;;;;;0.75;100.00;103269.53;5963862;29;20035;-68
2023/01/23 10:00:42;;;;;;;37.47;12.30;;;;;;;0.68;100.00;103265.25;5963864;29;20035;-67
2023/01/23 10:03:37;;;;;;;30.60;10.82;;;;;;;0.70;100.00;103250.44;5979509;29;20031;-68
2023/01/23 10:06:59;;;;;;;37.22;12.77;;;;;;;0.69;100.00;103258.28;5981162;29;20479;-69
2023/01/23 10:10:28;;;;;;;38.67;10.52;;;;;;;0.89;100.00;103272.81;5963691;29;20434;-69
2023/01/23 10:13:58;;;;;;;33.72;11.48;;;;;;;0.95;100.00;103277.09;5979950;29;20194;-67
2023/01/23 10:17:12;;;;;;;36.42;11.88;;;;;;;0.80;100.00;103277.28;5953951;29;20057;-68
2023/01/23 10:20:29;;;;;;;41.72;12.93;;;;;;;0.78;100.00;103274.72;5980087;29;20064;-67
2023/01/23 10:23:40;;;;;;;33.85;9.85;;;;;;;0.83;100.00;103272.91;5962761;29;20073;-69
2023/01/23 10:26:40;;;;;;;37.53;12.77;;;;;;;0.83;100.00;103270.28;5963221;29;20043;-69
2023/01/23 10:29:42;;;;;;;36.90;9.68;;;;;;;0.79;100.00;103260.75;5980064;29;20465;-71
2023/01/23 10:32:59;;;;;;;36.95;10.55;;;;;;;0.95;100.00;103280.53;5961782;28;20031;-67
2023/01/23 10:36:00;;;;;;;27.92;8.73;;;;;;;0.92;100.00;103282.34;5979577;29;20119;-68
2023/01/23 10:38:59;;;;;;;29.92;9.85;;;;;;;0.86;100.00;103262.41;5979908;29;20062;-67
2023/01/23 10:41:54;;;;;;;33.25;10.45;;;;;;;0.91;100.00;103263.22;5962369;29;20111;-68
2023/01/23 10:44:50;;;;;;;29.77;10.23;;;;;;;0.94;100.00;103272.75;5980162;28;20035;-68
2023/01/23 10:47:47;;;;;;;38.57;12.13;;;;;;;0.88;100.00;103250.19;5979596;29;20043;-67
2023/01/23 10:50:42;;;;;;;28.83;9.73;;;;;;;1.09;100.00;103260.31;5979599;28;20463;-69
2023/01/23 10:53:37;;;;;;;33.57;10.13;;;;;;;1.09;100.00;103265.53;5979141;29;20086;-68
2023/01/23 10:56:35;;;;;;;31.60;10.63;;;;;;;0.93;100.00;103250.97;5979838;28;20031;-68
2023/01/23 10:59:54;;;;;;;40.17;15.48;;;;;;;1.04;100.00;103263.88;5962344;29;20498;-70
2023/01/23 11:02:49;;;;;;;30.95;11.35;;;;;;;0.97;100.00;103254.41;5961971;29;20043;-69
2023/01/23 11:05:51;;;;;;;30.83;10.97;;;;;;;1.07;100.00;103266.44;5979124;29;20449;-67
2023/01/23 11:08:54;;;;;;;32.00;10.77;;;;;;;1.00;100.00;103249.16;5979275;29;20043;-69
2023/01/23 11:12:03;;;;;;;36.13;11.77;;;;;;;1.01;100.00;103250.84;5979251;29;20543;-68
2023/01/23 11:15:22;;;;;;;42.13;12.95;;;;;;;0.95;100.00;103261.41;5979420;29;20128;-69
2023/01/23 11:18:33;;;;;;;40.13;13.82;;;;;;;1.06;100.00;103256.91;5979177;29;20059;-68
2023/01/23 11:21:32;;;;;;;33.90;10.13;;;;;;;0.93;100.00;103243.16;5961886;28;20782;-69
2023/01/23 11:24:31;;;;;;;28.83;10.07;;;;;;;1.00;100.00;103239.56;5977250;28;20106;-68
2023/01/23 11:27:28;;;;;;;33.70;9.93;;;;;;;1.06;100.00;103239.47;5978867;29;20046;-67
2023/01/23 11:30:38;;;;;;;27.67;9.75;;;;;;;1.05;100.00;103242.97;5978607;29;20038;-69
2023/01/23 11:33:41;;;;;;;30.67;10.25;;;;;;;1.15;100.00;103249.78;5961342;29;20043;-68
2023/01/23 11:36:58;;;;;;;29.30;10.88;;;;;;;1.23;100.00;103252.25;5961834;29;20102;-70
2023/01/23 11:40:04;;;;;;;25.60;10.25;;;;;;;1.15;100.00;103234.09;5961560;29;20119;-69
2023/01/23 11:43:00;;;;;;;28.80;9.48;;;;;;;1.20;100.00;103242.72;5961542;29;20047;-69
2023/01/23 11:46:03;;;;;;;31.03;9.97;;;;;;;1.27;100.00;103247.88;5981313;28;20133;-70
2023/01/23 11:49:11;;;;;;;33.92;11.15;;;;;;;1.29;100.00;103243.47;5984245;29;20263;-70
2023/01/23 11:52:24;;;;;;;;;;;;;;;1.34;100.00;103245.13;5958948;29;20125;-69
2023/01/23 11:55:33;;;;;;;28.63;9.90;;;;;;;1.38;100.00;103227.66;5982863;29;19914;-69
2023/01/23 11:58:54;;;;;;;24.65;9.75;;;;;;;1.37;100.00;103228.53;5983695;29;20043;-69
2023/01/23 12:02:01;;;;;;;27.55;8.90;;;;;;;1.42;100.00;103230.16;5966185;29;20106;-69
2023/01/23 12:05:28;;;;;;;26.33;8.90;;;;;;;1.34;100.00;103231.19;5966471;29;20507;-69
2023/01/23 12:08:48;;;;;;;25.00;9.80;;;;;;;1.43;100.00;103225.81;5966644;29;20122;-69
2023/01/23 12:11:55;;;;;;;29.15;8.98;;;;;;;1.39;100.00;103229.34;5983035;29;20464;-69
2023/01/23 12:15:26;;;;;;;28.33;10.13;;;;;;;1.64;100.00;103226.31;5983447;29;20467;-70
2023/01/23 12:18:30;;;;;;;30.63;11.52;;;;;;;1.61;100.00;103230.72;5957192;29;20067;-70
2023/01/23 12:21:31;;;;;;;32.58;10.82;;;;;;;1.43;100.00;103224.06;5982954;28;20044;-71
2023/01/23 12:25:00;;;;;;;29.83;10.65;;;;;;;1.41;100.00;103217.13;5982475;29;20043;-71
2023/01/23 12:28:04;;;;;;;25.00;9.68;;;;;;;1.53;100.00;103217.78;5965623;29;20043;-70
2023/01/23 12:31:09;;;;;;;28.20;9.43;;;;;;;1.49;100.00;103203.06;5982986;29;20027;-70
2023/01/23 12:34:19;;;;;;;27.73;10.82;;;;;;;1.51;100.00;103218.69;5982219;29;20113;-71
2023/01/23 12:37:37;;;;;;;26.85;8.30;;;;;;;1.54;100.00;103216.91;5972328;28;20035;-68
2023/01/23 12:40:40;;;;;;;23.73;9.73;;;;;;;1.54;100.00;103197.75;5958386;29;20476;-71
2023/01/23 12:43:46;;;;;;;23.95;9.00;;;;;;;1.62;100.00;103219.38;5959665;29;20039;-69
2023/01/23 12:46:52;;;;;;;29.88;9.30;;;;;;;1.61;100.00;103215.91;5965458;29;20454;-69
2023/01/23 12:49:57;;;;;;;28.52;9.52;;;;;;;1.60;100.00;103214.16;5981850;29;20031;-69
2023/01/23 12:53:04;;;;;;;24.73;9.13;;;;;;;1.64;100.00;103212.34;5963748;29;20054;-71
2023/01/23 12:56:07;;;;;;;24.10;8.32;;;;;;;1.55;100.00;103207.31;5964760;28;20110;-71
2023/01/23 12:59:16;;;;;;;35.72;11.35;;;;;;;1.53;100.00;103222.13;5964375;29;20027;-69
2023/01/23 13:02:32;;;;;;;25.90;8.65;;;;;;;1.59;100.00;103219.44;5954041;29;20031;-69
2023/01/23 13:05:50;;;;;;;26.20;9.30;;;;;;;1.58;100.00;103207.22;5964442;29;20062;-69
2023/01/23 13:09:06;;;;;;;24.05;8.23;;;;;;;1.79;100.00;103218.16;5964984;29;20051;-70
2023/01/23 13:12:23;;;;;;;25.13;9.23;;;;;;;1.59;100.00;103219.44;5971630;29;20034;-71
2023/01/23 13:15:19;;;;;;;27.65;8.85;;;;;;;1.68;100.00;103229.72;5975225;28;20187;-69
2023/01/23 13:18:22;;;;;;;22.35;7.50;;;;;;;1.50;100.00;103193.44;5982313;29;20383;-70
2023/01/23 13:25:08;;;;;;;32.28;11.93;;;;;;;1.60;100.00;103229.00;5981055;29;20486;-70
2023/01/23 13:28:29;;;;;;;26.17;11.55;;;;;;;1.67;100.00;103239.31;5966896;29;20042;-71
2023/01/23 13:31:40;;;;;;;26.20;9.45;;;;;;;1.70;100.00;103238.41;5964034;29;20493;-69
2023/01/23 13:34:36;;;;;;;22.38;9.25;;;;;;;1.69;100.00;103241.91;5979882;29;20039;-71
2023/01/23 13:37:49;;;;;;;22.90;8.15;;;;;;;1.65;100.00;103242.88;5981660;29;20035;-69
2023/01/23 13:41:10;;;;;;;25.27;9.00;;;;;;;1.53;100.00;103250.91;5981062;29;20615;-69
2023/01/23 13:44:28;;;;;;;22.75;9.45;;;;;;;1.44;100.00;103241.47;5980453;29;20059;-69
2023/01/23 13:50:43;;;;;;;26.55;9.85;;;;;;;1.55;100.00;103249.16;5966246;28;20039;-71
2023/01/23 13:57:01;;;;;;;22.80;8.90;;;;;;;1.56;100.00;103240.41;5966477;29;20031;-68